ENAN

Andøya/Andenes Airport

Airport
ICAO code
ENAN
IATA Code
ANX
Summary
ICAO Region
EUR
ICAO Territory
Location

Andøya,

Serving
Andenes
Elevation
43 ft
Coordinates
69° 17' 33" N , 16° 8' 39" E
KCC
Metar
Observation
ENAN 271320Z 19024KT 7000 -RA BKN025 03/01 Q0997
Station
Andoya
Date/Time
2023-01-27 13:20:00
Wind direction
190°
Wind speed
24 kts
Lowest cloud amount
broken clouds
Temperature
3°C
Dew point
1°C
Humidity
86%
QNH
997 hPa
Weather condition
n/a

Airport serving Andenes, Norway, in the municipality of Andøy. It is located right next to the town of Andenes 1 nm south, and covers major parts of the northern tip of island Andøya. It is part of Andøya Air Station, who operate Orion surveillance aircraft. The Norwegian Space Centre and Andøya Rocket Range are also located at the airport.

Climatology

Borderline Subpolar Oceanic/Continental subarctic climate (because of winter temperatures) (Köppen climate classification Cfc/Dfc) - uniform precipitation distribution, temperatures are moderated by the proximity of the ocean and warm currents - cool summers and comparatively mild winters.

Runways

Designator Length Width Surface Rops
3/21 1672 45 ASP No/No
14/32 2468 45 ASP No/No

Airport map

Aerial View

SKYbrary Partners:

Safety knowledge contributed by: